createdAt,value
2018-07-08T00:00:54.386Z,1018.64
2018-07-08T00:02:03.034Z,1018.62
2018-07-08T00:03:11.951Z,1018.58
2018-07-08T00:04:20.596Z,1018.56
2018-07-08T00:05:29.244Z,1018.53
2018-07-08T00:06:37.878Z,1018.54
2018-07-08T00:07:46.528Z,1018.52
2018-07-08T00:08:55.168Z,1018.49
2018-07-08T00:10:03.824Z,1018.47
2018-07-08T00:11:12.460Z,1018.5
2018-07-08T00:12:21.113Z,1018.53
2018-07-08T00:13:30.015Z,1018.51
2018-07-08T00:14:38.673Z,1018.51
2018-07-08T00:15:47.305Z,1018.49
2018-07-08T00:16:55.947Z,1018.48
2018-07-08T00:18:04.593Z,1018.45
2018-07-08T00:19:13.247Z,1018.47
2018-07-08T00:20:21.890Z,1018.42
2018-07-08T00:21:30.531Z,1018.4
2018-07-08T00:22:39.174Z,1018.41
2018-07-08T00:23:47.818Z,1018.42
2018-07-08T00:24:56.473Z,1018.4
2018-07-08T00:26:05.380Z,1018.42
2018-07-08T00:27:14.028Z,1018.42
2018-07-08T00:28:22.665Z,1018.41
2018-07-08T00:29:31.320Z,1018.41
2018-07-08T00:30:39.968Z,1018.41
2018-07-08T00:31:48.880Z,1018.42
2018-07-08T00:32:57.526Z,1018.44
2018-07-08T00:34:06.165Z,1018.43
2018-07-08T00:35:15.341Z,1018.45
2018-07-08T00:36:24.251Z,1018.49
2018-07-08T00:37:32.905Z,1018.42
2018-07-08T00:38:41.550Z,1018.45
2018-07-08T00:39:50.234Z,1018.45
2018-07-08T00:40:59.277Z,1018.44
2018-07-08T00:42:07.919Z,1018.42
2018-07-08T00:43:16.572Z,1018.41
2018-07-08T00:44:25.213Z,1018.41
2018-07-08T00:45:33.860Z,1018.38
2018-07-08T00:46:42.495Z,1018.42
2018-07-08T00:47:51.149Z,1018.42
2018-07-08T00:48:59.787Z,1018.4
2018-07-08T00:50:08.432Z,1018.42
2018-07-08T00:51:17.064Z,1018.43
2018-07-08T00:52:25.716Z,1018.41
2018-07-08T00:53:34.358Z,1018.42
2018-07-08T00:54:43.269Z,1018.42
2018-07-08T00:55:52.174Z,1018.46
2018-07-08T00:57:00.819Z,1018.47
2018-07-08T00:58:09.466Z,1018.45
2018-07-08T00:59:18.375Z,1018.49
2018-07-08T01:00:27.022Z,1018.48
2018-07-08T01:01:35.997Z,1018.5
2018-07-08T01:02:44.570Z,1018.48
2018-07-08T01:03:53.208Z,1018.49
2018-07-08T01:05:01.864Z,1018.49
2018-07-08T01:06:10.497Z,1018.52
2018-07-08T01:07:19.146Z,1018.5
2018-07-08T01:08:27.787Z,1018.48
2018-07-08T01:09:36.438Z,1018.51
2018-07-08T01:10:45.075Z,1018.51
2018-07-08T01:11:53.719Z,1018.55
2018-07-08T01:13:02.363Z,1018.49
2018-07-08T01:14:11.020Z,1018.51
2018-07-08T01:15:19.923Z,1018.48
2018-07-08T01:16:28.562Z,1018.52
2018-07-08T01:17:37.204Z,1018.52
2018-07-08T01:18:45.845Z,1018.55
2018-07-08T01:19:54.499Z,1018.54
2018-07-08T01:21:03.661Z,1018.54
2018-07-08T01:22:12.585Z,1018.58
2018-07-08T01:23:21.220Z,1018.59
2018-07-08T01:24:29.872Z,1018.6
2018-07-08T01:25:38.511Z,1018.61
2018-07-08T01:26:47.157Z,1018.61
2018-07-08T01:27:56.314Z,1018.61
2018-07-08T01:29:05.234Z,1018.63
2018-07-08T01:30:13.875Z,1018.6
2018-07-08T01:31:22.523Z,1018.63
2018-07-08T01:32:31.161Z,1018.61
2018-07-08T01:33:39.808Z,1018.62
2018-07-08T01:34:48.717Z,1018.63
2018-07-08T01:35:57.364Z,1018.62
2018-07-08T01:37:06.015Z,1018.63
2018-07-08T01:38:14.648Z,1018.65
2018-07-08T01:39:23.291Z,1018.63
2018-07-08T01:40:31.932Z,1018.67
2018-07-08T01:41:40.840Z,1018.69
2018-07-08T01:42:49.480Z,1018.72
2018-07-08T01:43:58.121Z,1018.73
2018-07-08T01:45:07.030Z,1018.72
2018-07-08T01:46:15.676Z,1018.74
2018-07-08T01:47:24.315Z,1018.7
2018-07-08T01:48:32.961Z,1018.7
2018-07-08T01:49:41.870Z,1018.67
2018-07-08T01:50:50.779Z,1018.71
2018-07-08T01:51:59.417Z,1018.72
2018-07-08T01:53:08.064Z,1018.69
2018-07-08T01:54:16.704Z,1018.69
2018-07-08T01:55:25.347Z,1018.68
2018-07-08T01:56:34.265Z,1018.63
2018-07-08T01:57:42.906Z,1018.66
2018-07-08T01:58:51.811Z,1018.65
2018-07-08T02:00:00.449Z,1018.66
2018-07-08T02:01:09.095Z,1018.65
2018-07-08T02:02:17.736Z,1018.66
2018-07-08T02:03:26.385Z,1018.7
2018-07-08T02:04:35.021Z,1018.7
2018-07-08T02:05:43.674Z,1018.71
2018-07-08T02:06:52.317Z,1018.73
2018-07-08T02:08:01.264Z,1018.71
2018-07-08T02:09:09.906Z,1018.69
2018-07-08T02:10:18.558Z,1018.73
2018-07-08T02:11:27.201Z,1018.74
2018-07-08T02:12:35.846Z,1018.76
2018-07-08T02:13:44.492Z,1018.73
2018-07-08T02:14:53.131Z,1018.74
2018-07-08T02:16:02.046Z,1018.72
2018-07-08T02:17:10.957Z,1018.69
2018-07-08T02:18:19.605Z,1018.73
2018-07-08T02:19:28.242Z,1018.72
2018-07-08T02:20:36.885Z,1018.7
2018-07-08T02:21:45.532Z,1018.72
2018-07-08T02:22:54.181Z,1018.72
2018-07-08T02:24:02.823Z,1018.73
2018-07-08T02:25:11.468Z,1018.75
2018-07-08T02:26:20.108Z,1018.72
2018-07-08T02:27:28.757Z,1018.72
2018-07-08T02:28:37.396Z,1018.73
2018-07-08T02:29:46.037Z,1018.72
2018-07-08T02:30:54.678Z,1018.72
2018-07-08T02:32:03.327Z,1018.7
2018-07-08T02:33:11.978Z,1018.71
2018-07-08T02:34:20.624Z,1018.69
2018-07-08T02:35:29.797Z,1018.66
2018-07-08T02:36:38.438Z,1018.69
2018-07-08T02:37:47.619Z,1018.68
2018-07-08T02:38:56.265Z,1018.69
2018-07-08T02:40:05.176Z,1018.66
2018-07-08T02:41:13.821Z,1018.65
2018-07-08T02:42:22.465Z,1018.65
2018-07-08T02:43:31.106Z,1018.66
2018-07-08T02:44:39.757Z,1018.66
2018-07-08T02:45:48.407Z,1018.73
2018-07-08T02:46:57.050Z,1018.75
2018-07-08T02:48:05.695Z,1018.73
2018-07-08T02:49:14.346Z,1018.74
2018-07-08T02:50:22.991Z,1018.74
2018-07-08T02:51:31.638Z,1018.75
2018-07-08T02:52:40.284Z,1018.75
2018-07-08T02:53:48.924Z,1018.71
2018-07-08T02:54:57.577Z,1018.76
2018-07-08T02:56:06.216Z,1018.74
2018-07-08T02:57:14.864Z,1018.74
2018-07-08T02:58:23.513Z,1018.75
2018-07-08T02:59:32.695Z,1018.72
2018-07-08T03:00:41.334Z,1018.78
2018-07-08T03:01:49.979Z,1018.82
2018-07-08T03:02:58.624Z,1018.86
2018-07-08T03:04:07.544Z,1018.87
2018-07-08T03:05:16.183Z,1018.86
2018-07-08T03:06:25.370Z,1018.91
2018-07-08T03:07:34.010Z,1018.91
2018-07-08T03:08:42.646Z,1018.88
2018-07-08T03:09:51.572Z,1018.87
2018-07-08T03:11:00.488Z,1018.89
2018-07-08T03:12:09.121Z,1018.91
2018-07-08T03:13:17.764Z,1018.91
2018-07-08T03:14:26.418Z,1018.86
2018-07-08T03:15:35.592Z,1018.9
2018-07-08T03:16:44.238Z,1018.9
2018-07-08T03:17:53.199Z,1018.9
2018-07-08T03:19:01.851Z,1018.91
2018-07-08T03:20:10.495Z,1018.89
2018-07-08T03:21:19.140Z,1018.9
2018-07-08T03:22:28.042Z,1018.93
2018-07-08T03:23:37.225Z,1018.92
2018-07-08T03:24:45.885Z,1018.96
2018-07-08T03:25:55.060Z,1018.95
2018-07-08T03:27:03.707Z,1018.97
2018-07-08T03:28:12.609Z,1018.94
2018-07-08T03:29:21.253Z,1019
2018-07-08T03:30:29.891Z,1019
2018-07-08T03:31:39.096Z,1019.01
2018-07-08T03:32:47.734Z,1018.95
2018-07-08T03:33:56.645Z,1019.03
2018-07-08T03:35:05.283Z,1019
2018-07-08T03:36:13.938Z,1019.04
2018-07-08T03:37:22.572Z,1018.98
2018-07-08T03:38:31.218Z,1018.97
2018-07-08T03:39:39.859Z,1019.02
2018-07-08T03:40:48.512Z,1018.97
2018-07-08T03:41:57.425Z,1018.99
2018-07-08T03:43:06.333Z,1018.98
2018-07-08T03:44:14.977Z,1019.01
2018-07-08T03:45:23.876Z,1019.02
2018-07-08T03:46:32.532Z,1019.06
2018-07-08T03:47:41.168Z,1019.03
2018-07-08T03:48:49.817Z,1018.99
2018-07-08T03:49:58.714Z,1019
2018-07-08T03:51:07.364Z,1019.02
2018-07-08T03:52:16.001Z,1019.04
2018-07-08T03:53:24.648Z,1018.99
2018-07-08T03:54:33.278Z,1019.02
2018-07-08T03:55:41.943Z,1019.02
2018-07-08T03:56:50.580Z,1019.02
2018-07-08T03:57:59.224Z,1018.99
2018-07-08T03:59:07.858Z,1018.98
2018-07-08T04:00:16.503Z,1019.03
2018-07-08T04:01:25.150Z,1019.05
2018-07-08T04:02:33.794Z,1019.04
2018-07-08T04:03:42.438Z,1019.06
2018-07-08T04:04:51.073Z,1019.04
2018-07-08T04:05:59.720Z,1019.02
2018-07-08T04:07:08.360Z,1019.02
2018-07-08T04:08:17.013Z,1019.04
2018-07-08T04:09:25.908Z,1019.05
2018-07-08T04:10:34.554Z,1019.04
2018-07-08T04:11:43.192Z,1019.05
2018-07-08T04:12:51.844Z,1019.06
2018-07-08T04:14:00.479Z,1019.02
2018-07-08T04:15:09.148Z,1019.05
2018-07-08T04:16:17.764Z,1019.06
2018-07-08T04:17:26.415Z,1019.07
2018-07-08T04:18:35.056Z,1019.07
2018-07-08T04:19:43.694Z,1019.06
2018-07-08T04:20:52.335Z,1019.03
2018-07-08T04:22:01.234Z,1019.01
2018-07-08T04:23:09.886Z,1019.03
2018-07-08T04:24:18.526Z,1018.99
2018-07-08T04:25:27.173Z,1019.03
2018-07-08T04:26:35.806Z,1019.02
2018-07-08T04:27:44.448Z,1019.02
2018-07-08T04:28:53.095Z,1018.98
2018-07-08T04:30:01.739Z,1018.98
2018-07-08T04:31:10.393Z,1019.01
2018-07-08T04:32:19.027Z,1019.05
2018-07-08T04:33:27.674Z,1019.09
2018-07-08T04:34:36.314Z,1019.12
2018-07-08T04:35:44.970Z,1019.07
2018-07-08T04:36:53.870Z,1019.1
2018-07-08T04:38:02.512Z,1019.08
2018-07-08T04:39:11.426Z,1019.13
2018-07-08T04:40:20.074Z,1019.14
2018-07-08T04:41:28.720Z,1019.17
2018-07-08T04:42:37.358Z,1019.17
2018-07-08T04:43:46.004Z,1019.2
2018-07-08T04:44:54.639Z,1019.21
2018-07-08T04:46:03.553Z,1019.22
2018-07-08T04:47:12.191Z,1019.22
2018-07-08T04:48:20.837Z,1019.27
2018-07-08T04:49:29.736Z,1019.27
2018-07-08T04:50:38.391Z,1019.3
2018-07-08T04:51:47.032Z,1019.22
2018-07-08T04:52:55.941Z,1019.26
2018-07-08T04:54:04.577Z,1019.22
2018-07-08T04:55:13.221Z,1019.19
2018-07-08T04:56:21.888Z,1019.19
2018-07-08T04:57:30.515Z,1019.23
2018-07-08T04:58:39.159Z,1019.25
2018-07-08T04:59:47.789Z,1019.3
2018-07-08T05:00:56.504Z,1019.25
2018-07-08T05:02:05.084Z,1019.23
2018-07-08T05:03:13.726Z,1019.24
2018-07-08T05:04:22.359Z,1019.23
2018-07-08T05:05:31.009Z,1019.24
2018-07-08T05:06:39.648Z,1019.28
2018-07-08T05:07:48.302Z,1019.31
2018-07-08T05:08:57.200Z,1019.34
2018-07-08T05:10:05.851Z,1019.35
2018-07-08T05:11:14.489Z,1019.34
2018-07-08T05:12:23.140Z,1019.36
2018-07-08T05:13:32.064Z,1019.35
2018-07-08T05:14:40.708Z,1019.35
2018-07-08T05:15:49.348Z,1019.37
2018-07-08T05:16:57.988Z,1019.36
2018-07-08T05:18:06.640Z,1019.37
2018-07-08T05:19:15.281Z,1019.37
2018-07-08T05:20:23.964Z,1019.39
2018-07-08T05:21:32.562Z,1019.4
2018-07-08T05:22:41.477Z,1019.43
2018-07-08T05:23:50.117Z,1019.45
2018-07-08T05:24:58.763Z,1019.45
2018-07-08T05:26:07.405Z,1019.49
2018-07-08T05:27:16.317Z,1019.48
2018-07-08T05:28:24.957Z,1019.5
2018-07-08T05:29:33.604Z,1019.55
2018-07-08T05:30:42.244Z,1019.55
2018-07-08T05:31:50.893Z,1019.55
2018-07-08T05:32:59.809Z,1019.57
2018-07-08T05:34:08.455Z,1019.56
2018-07-08T05:35:17.100Z,1019.58
2018-07-08T05:36:25.738Z,1019.55
2018-07-08T05:37:34.384Z,1019.6
2018-07-08T05:38:43.030Z,1019.58
2018-07-08T05:39:51.677Z,1019.6
2018-07-08T05:41:00.575Z,1019.59
2018-07-08T05:42:09.221Z,1019.57
2018-07-08T05:43:17.869Z,1019.57
2018-07-08T05:44:26.781Z,1019.53
2018-07-08T05:45:35.420Z,1019.56
2018-07-08T05:46:44.065Z,1019.56
2018-07-08T05:47:52.703Z,1019.57
2018-07-08T05:49:01.351Z,1019.59
2018-07-08T05:50:10.006Z,1019.6
2018-07-08T05:51:18.987Z,1019.63
2018-07-08T05:52:27.631Z,1019.6
2018-07-08T05:53:36.273Z,1019.62
2018-07-08T05:54:44.922Z,1019.63
2018-07-08T05:55:53.570Z,1019.61
2018-07-08T05:57:02.212Z,1019.62
2018-07-08T05:58:10.853Z,1019.63
2018-07-08T05:59:19.765Z,1019.64
2018-07-08T06:00:28.409Z,1019.62
2018-07-08T06:01:37.052Z,1019.6
2018-07-08T06:02:45.693Z,1019.6
2018-07-08T06:03:54.341Z,1019.62
2018-07-08T06:05:02.984Z,1019.6
2018-07-08T06:06:11.631Z,1019.59
2018-07-08T06:07:20.272Z,1019.53
2018-07-08T06:08:28.917Z,1019.56
2018-07-08T06:09:37.566Z,1019.58
2018-07-08T06:10:46.210Z,1019.55
2018-07-08T06:11:55.120Z,1019.55
2018-07-08T06:13:03.760Z,1019.48
2018-07-08T06:14:12.403Z,1019.5
2018-07-08T06:15:21.052Z,1019.49
2018-07-08T06:16:29.702Z,1019.5
2018-07-08T06:17:38.343Z,1019.53
2018-07-08T06:18:46.990Z,1019.44
2018-07-08T06:19:55.639Z,1019.45
2018-07-08T06:21:04.288Z,1019.45
2018-07-08T06:22:12.935Z,1019.47
2018-07-08T06:23:21.580Z,1019.46
2018-07-08T06:24:30.745Z,1019.46
2018-07-08T06:25:39.399Z,1019.49
2018-07-08T06:26:48.044Z,1019.5
2018-07-08T06:27:56.684Z,1019.46
2018-07-08T06:29:05.327Z,1019.51
2018-07-08T06:30:13.974Z,1019.52
2018-07-08T06:31:22.901Z,1019.49
2018-07-08T06:32:31.540Z,1019.49
2018-07-08T06:33:40.198Z,1019.52
2018-07-08T06:34:49.097Z,1019.5
2018-07-08T06:35:57.754Z,1019.51
2018-07-08T06:37:06.396Z,1019.53
2018-07-08T06:38:15.049Z,1019.57
2018-07-08T06:39:23.685Z,1019.53
2018-07-08T06:40:32.608Z,1019.54
2018-07-08T06:41:41.250Z,1019.55
2018-07-08T06:42:49.902Z,1019.53
2018-07-08T06:43:58.853Z,1019.51
2018-07-08T06:45:07.500Z,1019.5
2018-07-08T06:46:16.150Z,1019.48
2018-07-08T06:47:24.798Z,1019.5
2018-07-08T06:48:33.445Z,1019.54
2018-07-08T06:49:42.083Z,1019.53
2018-07-08T06:50:50.734Z,1019.53
2018-07-08T06:51:59.384Z,1019.5
2018-07-08T06:53:08.039Z,1019.53
2018-07-08T06:54:16.935Z,1019.51
2018-07-08T06:55:25.588Z,1019.52
2018-07-08T06:56:34.231Z,1019.49
2018-07-08T06:57:42.887Z,1019.48
2018-07-08T06:58:51.523Z,1019.51
2018-07-08T07:00:00.173Z,1019.52
2018-07-08T07:01:08.818Z,1019.52
2018-07-08T07:02:17.474Z,1019.51
2018-07-08T07:03:26.124Z,1019.46
2018-07-08T07:04:35.022Z,1019.47
2018-07-08T07:05:43.673Z,1019.5
2018-07-08T07:06:52.579Z,1019.53
2018-07-08T07:08:01.235Z,1019.52
2018-07-08T07:09:09.881Z,1019.53
2018-07-08T07:10:18.535Z,1019.51
2018-07-08T07:11:27.178Z,1019.5
2018-07-08T07:12:35.832Z,1019.52
2018-07-08T07:13:44.470Z,1019.49
2018-07-08T07:14:53.120Z,1019.47
2018-07-08T07:16:02.023Z,1019.53
2018-07-08T07:17:10.937Z,1019.51
2018-07-08T07:18:19.580Z,1019.51
2018-07-08T07:19:28.227Z,1019.52
2018-07-08T07:20:36.865Z,1019.52
2018-07-08T07:21:45.781Z,1019.53
2018-07-08T07:22:54.477Z,1019.53
2018-07-08T07:24:03.072Z,1019.5
2018-07-08T07:25:11.720Z,1019.52
2018-07-08T07:26:20.362Z,1019.47
2018-07-08T07:27:29.010Z,1019.49
2018-07-08T07:28:37.695Z,1019.49
2018-07-08T07:29:46.309Z,1019.46
2018-07-08T07:30:54.953Z,1019.48
2018-07-08T07:32:03.601Z,1019.5
2018-07-08T07:33:12.243Z,1019.45
2018-07-08T07:34:20.894Z,1019.42
2018-07-08T07:35:29.535Z,1019.45
2018-07-08T07:36:38.711Z,1019.45
2018-07-08T07:37:47.352Z,1019.42
2018-07-08T07:38:56.002Z,1019.39
2018-07-08T07:40:04.660Z,1019.43
2018-07-08T07:41:13.307Z,1019.41
2018-07-08T07:42:21.950Z,1019.39
2018-07-08T07:43:30.597Z,1019.36
2018-07-08T07:44:39.250Z,1019.37
2018-07-08T07:45:47.899Z,1019.35
2018-07-08T07:46:56.549Z,1019.32
2018-07-08T07:48:05.191Z,1019.32
2018-07-08T07:49:13.840Z,1019.32
2018-07-08T07:50:22.488Z,1019.31
2018-07-08T07:51:31.134Z,1019.32
2018-07-08T07:52:40.039Z,1019.32
2018-07-08T07:53:49.227Z,1019.26
2018-07-08T07:54:57.875Z,1019.29
2018-07-08T07:56:06.521Z,1019.34
2018-07-08T07:57:15.167Z,1019.32
2018-07-08T07:58:23.815Z,1019.36
2018-07-08T07:59:32.461Z,1019.36
2018-07-08T08:00:41.112Z,1019.35
2018-07-08T08:01:49.761Z,1019.37
2018-07-08T08:02:58.411Z,1019.37
2018-07-08T08:04:07.585Z,1019.39
2018-07-08T08:05:16.231Z,1019.38
2018-07-08T08:06:24.882Z,1019.39
2018-07-08T08:07:33.526Z,1019.41
2018-07-08T08:08:42.173Z,1019.37
2018-07-08T08:09:50.821Z,1019.39
2018-07-08T08:10:59.751Z,1019.38
2018-07-08T08:12:08.393Z,1019.4
2018-07-08T08:13:17.302Z,1019.46
2018-07-08T08:14:25.948Z,1019.47
2018-07-08T08:15:34.864Z,1019.44
2018-07-08T08:16:43.509Z,1019.47
2018-07-08T08:17:52.155Z,1019.44
2018-07-08T08:19:00.802Z,1019.46
2018-07-08T08:20:09.967Z,1019.48
2018-07-08T08:21:18.627Z,1019.44
2018-07-08T08:22:27.264Z,1019.48
2018-07-08T08:23:35.913Z,1019.5
2018-07-08T08:24:44.569Z,1019.54
2018-07-08T08:25:53.205Z,1019.54
2018-07-08T08:27:02.126Z,1019.52
2018-07-08T08:28:10.774Z,1019.53
2018-07-08T08:29:19.423Z,1019.52
2018-07-08T08:30:28.066Z,1019.53
2018-07-08T08:31:36.716Z,1019.54
2018-07-08T08:32:45.655Z,1019.45
2018-07-08T08:33:54.667Z,1019.54
2018-07-08T08:35:03.582Z,1019.55
2018-07-08T08:36:12.230Z,1019.51
2018-07-08T08:37:21.141Z,1019.53
2018-07-08T08:38:29.790Z,1019.47
2018-07-08T08:39:38.443Z,1019.48
2018-07-08T08:40:47.358Z,1019.45
2018-07-08T08:41:56.007Z,1019.46
2018-07-08T08:43:04.654Z,1019.46
2018-07-08T08:44:13.309Z,1019.46
2018-07-08T08:45:21.955Z,1019.46
2018-07-08T08:46:30.603Z,1019.48
2018-07-08T08:47:39.515Z,1019.46
2018-07-08T08:48:48.171Z,1019.47
2018-07-08T08:49:56.819Z,1019.48
2018-07-08T08:51:05.469Z,1019.43
2018-07-08T08:52:14.115Z,1019.51
2018-07-08T08:53:22.769Z,1019.45
2018-07-08T08:54:31.416Z,1019.46
2018-07-08T08:55:40.071Z,1019.41
2018-07-08T08:56:48.722Z,1019.38
2018-07-08T08:57:57.368Z,1019.39
2018-07-08T08:59:06.020Z,1019.41
2018-07-08T09:00:14.671Z,1019.45
2018-07-08T09:01:23.583Z,1019.44
2018-07-08T09:02:32.228Z,1019.33
2018-07-08T09:03:40.935Z,1019.4
2018-07-08T09:04:49.809Z,1019.43
2018-07-08T09:05:58.462Z,1019.42
2018-07-08T09:07:07.107Z,1019.41
2018-07-08T09:08:15.766Z,1019.38
2018-07-08T09:09:24.411Z,1019.37
2018-07-08T09:10:33.059Z,1019.36
2018-07-08T09:11:41.706Z,1019.42
2018-07-08T09:12:50.617Z,1019.44
2018-07-08T09:13:59.264Z,1019.48
2018-07-08T09:15:07.912Z,1019.44
2018-07-08T09:16:16.563Z,1019.43
2018-07-08T09:17:25.212Z,1019.45
2018-07-08T09:18:33.860Z,1019.44
2018-07-08T09:19:42.763Z,1019.43
2018-07-08T09:20:51.698Z,1019.48
2018-07-08T09:22:00.605Z,1019.43
2018-07-08T09:23:09.260Z,1019.46
2018-07-08T09:24:17.898Z,1019.47
2018-07-08T09:25:26.559Z,1019.47
2018-07-08T09:26:35.201Z,1019.47
2018-07-08T09:27:43.851Z,1019.48
2018-07-08T09:28:52.492Z,1019.48
2018-07-08T09:30:01.142Z,1019.42
2018-07-08T09:31:10.098Z,1019.43
2018-07-08T09:32:18.748Z,1019.47
2018-07-08T09:33:27.399Z,1019.45
2018-07-08T09:34:36.039Z,1019.5
2018-07-08T09:35:44.702Z,1019.5
2018-07-08T09:36:53.352Z,1019.53
2018-07-08T09:38:02.281Z,1019.49
2018-07-08T09:39:11.117Z,1019.49
2018-07-08T09:40:19.573Z,1019.45
2018-07-08T09:41:28.219Z,1019.54
2018-07-08T09:42:36.876Z,1019.47
2018-07-08T09:43:45.517Z,1019.5
2018-07-08T09:44:54.168Z,1019.52
2018-07-08T09:46:02.842Z,1019.54
2018-07-08T09:47:11.740Z,1019.54
2018-07-08T09:48:20.390Z,1019.55
2018-07-08T09:49:29.037Z,1019.51
2018-07-08T09:50:37.685Z,1019.5
2018-07-08T09:51:46.597Z,1019.52
2018-07-08T09:52:55.256Z,1019.52
2018-07-08T09:54:03.902Z,1019.46
2018-07-08T09:55:12.556Z,1019.52
2018-07-08T09:56:21.200Z,1019.54
2018-07-08T09:57:29.859Z,1019.53
2018-07-08T09:58:38.766Z,1019.54
2018-07-08T09:59:47.422Z,1019.57
2018-07-08T10:00:56.065Z,1019.57
2018-07-08T10:02:04.724Z,1019.56
2018-07-08T10:03:13.372Z,1019.56
2018-07-08T10:04:22.028Z,1019.57
2018-07-08T10:05:30.671Z,1019.46
2018-07-08T10:06:39.322Z,1019.5
2018-07-08T10:07:47.977Z,1019.49
2018-07-08T10:08:56.630Z,1019.53
2018-07-08T10:10:05.280Z,1019.51
2018-07-08T10:11:13.921Z,1019.49
2018-07-08T10:12:22.578Z,1019.51
2018-07-08T10:13:31.222Z,1019.36
2018-07-08T10:14:39.883Z,1019.43
2018-07-08T10:15:48.523Z,1019.43
2018-07-08T10:16:57.176Z,1019.44
2018-07-08T10:18:05.830Z,1019.42
2018-07-08T10:19:14.474Z,1019.4
2018-07-08T10:20:23.589Z,1019.41
2018-07-08T10:21:32.266Z,1019.4
2018-07-08T10:22:40.889Z,1019.41
2018-07-08T10:23:49.539Z,1019.41
2018-07-08T10:24:58.452Z,1019.43
2018-07-08T10:26:07.104Z,1019.41
2018-07-08T10:27:15.762Z,1019.41
2018-07-08T10:28:24.410Z,1019.4
2018-07-08T10:29:33.057Z,1019.35
2018-07-08T10:30:41.709Z,1019.35
2018-07-08T10:31:50.360Z,1019.33
2018-07-08T10:32:59.015Z,1019.32
2018-07-08T10:34:07.665Z,1019.33
2018-07-08T10:35:16.316Z,1019.35
2018-07-08T10:36:24.975Z,1019.33
2018-07-08T10:37:33.958Z,1019.35
2018-07-08T10:38:42.869Z,1019.32
2018-07-08T10:39:51.780Z,1019.35
2018-07-08T10:41:00.431Z,1019.42
2018-07-08T10:42:09.087Z,1019.43
2018-07-08T10:43:17.780Z,1019.38
2018-07-08T10:44:26.775Z,1019.31
2018-07-08T10:45:35.426Z,1019.3
2018-07-08T10:46:44.074Z,1019.35
2018-07-08T10:47:52.731Z,1019.27
2018-07-08T10:49:01.387Z,1019.29
2018-07-08T10:50:10.324Z,1019.29
2018-07-08T10:51:18.945Z,1019.32
2018-07-08T10:52:27.871Z,1019.29
2018-07-08T10:53:36.517Z,1019.35
2018-07-08T10:54:45.170Z,1019.29
2018-07-08T10:55:53.819Z,1019.24
2018-07-08T10:57:02.476Z,1019.22
2018-07-08T10:58:11.384Z,1019.26
2018-07-08T10:59:20.036Z,1019.23
2018-07-08T11:00:28.684Z,1019.23
2018-07-08T11:01:37.336Z,1019.23
2018-07-08T11:02:46.283Z,1019.2
2018-07-08T11:03:54.932Z,1019.19
2018-07-08T11:05:03.596Z,1019.15
2018-07-08T11:06:12.243Z,1019.19
2018-07-08T11:07:20.893Z,1019.15
2018-07-08T11:08:30.092Z,1019.14
2018-07-08T11:09:39.009Z,1019.1
2018-07-08T11:10:47.948Z,1019.12
2018-07-08T11:11:56.964Z,1019.15
2018-07-08T11:13:05.617Z,1019.11
2018-07-08T11:14:14.271Z,1019.16
2018-07-08T11:15:22.918Z,1019.07
2018-07-08T11:16:31.571Z,1019.06
2018-07-08T11:17:40.220Z,1019.02
2018-07-08T11:18:49.153Z,1019.04
2018-07-08T11:19:58.325Z,1019.06
2018-07-08T11:21:06.981Z,1019.07
2018-07-08T11:22:15.628Z,1019.1
2018-07-08T11:23:24.279Z,1019.06
2018-07-08T11:24:32.939Z,1019.06
2018-07-08T11:25:41.848Z,1019.01
2018-07-08T11:26:50.503Z,1019.02
2018-07-08T11:27:59.145Z,1019.01
2018-07-08T11:29:08.078Z,1019
2018-07-08T11:30:16.725Z,1019.01
2018-07-08T11:31:25.382Z,1019
2018-07-08T11:32:34.024Z,1018.94
2018-07-08T11:33:42.679Z,1018.98
2018-07-08T11:34:51.605Z,1019.01
2018-07-08T11:36:00.259Z,1019
2018-07-08T11:37:08.901Z,1018.93
2018-07-08T11:38:17.559Z,1018.97
2018-07-08T11:39:26.746Z,1018.96
2018-07-08T11:40:35.928Z,1018.96
2018-07-08T11:41:44.582Z,1019
2018-07-08T11:42:53.275Z,1018.96
2018-07-08T11:44:01.880Z,1018.91
2018-07-08T11:45:10.527Z,1018.91
2018-07-08T11:46:19.187Z,1018.91
2018-07-08T11:47:28.094Z,1018.92
2018-07-08T11:48:36.748Z,1018.96
2018-07-08T11:49:45.678Z,1018.92
2018-07-08T11:50:54.610Z,1018.91
2018-07-08T11:52:03.520Z,1018.88
2018-07-08T11:53:12.437Z,1018.94
2018-07-08T11:54:21.349Z,1018.98
2018-07-08T11:55:30.093Z,1018.98
2018-07-08T11:56:39.014Z,1019.03
2018-07-08T11:57:47.661Z,1019
2018-07-08T11:58:56.575Z,1018.98
2018-07-08T12:00:05.227Z,1019
2018-07-08T12:01:13.887Z,1018.95
2018-07-08T12:02:22.541Z,1019.01
2018-07-08T12:03:31.200Z,1019.03
2018-07-08T12:04:39.843Z,1018.93
2018-07-08T12:05:48.503Z,1018.94
2018-07-08T12:06:57.148Z,1018.97
2018-07-08T12:08:05.804Z,1018.91
2018-07-08T12:09:14.444Z,1018.9
2018-07-08T12:10:23.372Z,1018.82
2018-07-08T12:11:32.021Z,1018.91
2018-07-08T12:12:40.676Z,1018.91
2018-07-08T12:13:49.322Z,1018.96
2018-07-08T12:14:57.974Z,1018.93
2018-07-08T12:16:06.636Z,1018.91
2018-07-08T12:17:15.545Z,1018.93
2018-07-08T12:18:24.194Z,1018.88
2018-07-08T12:19:32.853Z,1018.86
2018-07-08T12:20:41.762Z,1018.87
2018-07-08T12:21:50.419Z,1018.84
2018-07-08T12:22:59.062Z,1018.86
2018-07-08T12:24:07.721Z,1018.85
2018-07-08T12:25:16.369Z,1018.81
2018-07-08T12:26:25.026Z,1018.8
2018-07-08T12:27:33.747Z,1018.84
2018-07-08T12:28:42.328Z,1018.82
2018-07-08T12:29:50.977Z,1018.79
2018-07-08T12:30:59.635Z,1018.81
2018-07-08T12:32:08.539Z,1018.82
2018-07-08T12:33:17.195Z,1018.74
2018-07-08T12:34:25.851Z,1018.75
2018-07-08T12:35:34.504Z,1018.81
2018-07-08T12:36:43.175Z,1018.75
2018-07-08T12:37:52.369Z,1018.74
2018-07-08T12:39:01.029Z,1018.73
2018-07-08T12:40:10.200Z,1018.71
2018-07-08T12:41:18.862Z,1018.65
2018-07-08T12:42:27.767Z,1018.65
2018-07-08T12:43:36.423Z,1018.67
2018-07-08T12:44:45.181Z,1018.61
2018-07-08T12:45:53.735Z,1018.66
2018-07-08T12:47:02.642Z,1018.67
2018-07-08T12:48:11.295Z,1018.69
2018-07-08T12:49:19.946Z,1018.66
2018-07-08T12:50:28.613Z,1018.62
2018-07-08T12:51:37.252Z,1018.62
2018-07-08T12:52:45.901Z,1018.68
2018-07-08T12:53:54.552Z,1018.62
2018-07-08T12:55:03.201Z,1018.55
2018-07-08T12:56:11.861Z,1018.58
2018-07-08T12:57:20.508Z,1018.58
2018-07-08T12:58:29.160Z,1018.56
2018-07-08T12:59:37.802Z,1018.56
2018-07-08T13:00:46.463Z,1018.54
2018-07-08T13:01:55.108Z,1018.62
2018-07-08T13:03:03.764Z,1018.57
2018-07-08T13:04:12.408Z,1018.59
2018-07-08T13:05:21.068Z,1018.65
2018-07-08T13:06:29.743Z,1018.62
2018-07-08T13:07:38.711Z,1018.63
2018-07-08T13:08:47.355Z,1018.65
2018-07-08T13:09:56.009Z,1018.63
2018-07-08T13:11:04.670Z,1018.6
2018-07-08T13:12:13.326Z,1018.58
2018-07-08T13:13:21.984Z,1018.62
2018-07-08T13:14:30.628Z,1018.61
2018-07-08T13:15:39.284Z,1018.63
2018-07-08T13:16:47.935Z,1018.64
2018-07-08T13:17:56.593Z,1018.65
2018-07-08T13:19:05.243Z,1018.6
2018-07-08T13:20:13.897Z,1018.6
2018-07-08T13:21:22.553Z,1018.64
2018-07-08T13:22:31.210Z,1018.59
2018-07-08T13:23:40.123Z,1018.58
2018-07-08T13:24:48.779Z,1018.6
2018-07-08T13:25:57.440Z,1018.57
2018-07-08T13:27:06.092Z,1018.54
2018-07-08T13:28:14.744Z,1018.57
2018-07-08T13:29:23.397Z,1018.56
2018-07-08T13:30:32.046Z,1018.56
2018-07-08T13:31:40.965Z,1018.56
2018-07-08T13:32:49.622Z,1018.54
2018-07-08T13:33:58.273Z,1018.5
2018-07-08T13:35:07.193Z,1018.55
2018-07-08T13:36:16.101Z,1018.51
2018-07-08T13:37:25.021Z,1018.54
2018-07-08T13:38:33.674Z,1018.55
2018-07-08T13:39:42.327Z,1018.55
2018-07-08T13:40:51.235Z,1018.54
2018-07-08T13:41:59.892Z,1018.48
2018-07-08T13:43:08.540Z,1018.47
2018-07-08T13:44:17.204Z,1018.44
2018-07-08T13:45:25.842Z,1018.5
2018-07-08T13:46:34.770Z,1018.39
2018-07-08T13:47:43.420Z,1018.43
2018-07-08T13:48:52.075Z,1018.47
2018-07-08T13:50:00.731Z,1018.47
2018-07-08T13:51:09.380Z,1018.42
2018-07-08T13:52:18.037Z,1018.41
2018-07-08T13:53:26.690Z,1018.39
2018-07-08T13:54:35.609Z,1018.34